sensor_id;sensor_type;location;lat;lon;timestamp;pressure;altitude;pressure_sealevel;temperature;humidity
71057;BME280;58380;48.312;9.246;2023-04-06T05:50:08;93669.66;;;-5.60;94.67
71057;BME280;58380;48.312;9.246;2023-04-06T05:52:34;93687.34;;;-5.33;94.13
71057;BME280;58380;48.312;9.246;2023-04-06T05:54:59;93662.94;;;-5.21;93.70
71057;BME280;58380;48.312;9.246;2023-04-06T05:57:25;93687.19;;;-4.82;93.05
71057;BME280;58380;48.312;9.246;2023-04-06T05:59:51;93701.47;;;-4.55;93.07
71057;BME280;58380;48.312;9.246;2023-04-06T06:02:16;93705.28;;;-4.35;92.15
71057;BME280;58380;48.312;9.246;2023-04-06T06:04:41;93686.13;;;-4.24;91.03
71057;BME280;58380;48.312;9.246;2023-04-06T06:07:08;93709.25;;;-3.99;90.61
71057;BME280;58380;48.312;9.246;2023-04-06T06:09:33;93702.06;;;-3.81;90.42
71057;BME280;58380;48.312;9.246;2023-04-06T06:12:00;93709.69;;;-3.56;89.97
71057;BME280;58380;48.312;9.246;2023-04-06T06:14:25;93670.56;;;-3.68;89.47
71057;BME280;58380;48.312;9.246;2023-04-06T06:16:53;93688.25;;;-3.34;89.05
71057;BME280;58380;48.312;9.246;2023-04-06T06:19:19;93697.16;;;-3.13;88.32
71057;BME280;58380;48.312;9.246;2023-04-06T06:21:44;93714.34;;;-2.83;88.16
71057;BME280;58380;48.312;9.246;2023-04-06T06:24:10;93697.09;;;-2.82;86.70
71057;BME280;58380;48.312;9.246;2023-04-06T06:26:36;93708.38;;;-2.45;86.03
71057;BME280;58380;48.312;9.246;2023-04-06T06:29:03;93685.75;;;-2.43;85.34
71057;BME280;58380;48.312;9.246;2023-04-06T06:31:30;93648.50;;;-2.49;84.70
71057;BME280;58380;48.312;9.246;2023-04-06T06:33:55;93691.94;;;-2.14;83.26
71057;BME280;58380;48.312;9.246;2023-04-06T06:36:21;93702.88;;;-1.83;83.34
71057;BME280;58380;48.312;9.246;2023-04-06T06:38:46;93681.19;;;-1.67;83.23
71057;BME280;58380;48.312;9.246;2023-04-06T06:41:12;93711.81;;;-1.34;81.86
71057;BME280;58380;48.312;9.246;2023-04-06T06:43:37;93699.00;;;-1.21;80.62
71057;BME280;58380;48.312;9.246;2023-04-06T06:46:03;93702.28;;;-1.12;81.91
71057;BME280;58380;48.312;9.246;2023-04-06T06:48:29;93711.34;;;-0.80;80.76
71057;BME280;58380;48.312;9.246;2023-04-06T06:50:55;93688.03;;;-0.80;80.43
71057;BME280;58380;48.312;9.246;2023-04-06T06:53:21;93711.84;;;-0.70;77.46
71057;BME280;58380;48.312;9.246;2023-04-06T06:55:49;93705.72;;;-0.62;77.67
71057;BME280;58380;48.312;9.246;2023-04-06T06:58:15;93691.19;;;-0.56;79.73
71057;BME280;58380;48.312;9.246;2023-04-06T07:00:42;93693.16;;;-0.30;79.38
71057;BME280;58380;48.312;9.246;2023-04-06T07:03:08;93688.31;;;-0.12;79.28
71057;BME280;58380;48.312;9.246;2023-04-06T07:05:33;93681.44;;;0.09;78.44
71057;BME280;58380;48.312;9.246;2023-04-06T07:07:59;93684.31;;;0.27;76.79
71057;BME280;58380;48.312;9.246;2023-04-06T07:10:24;93719.28;;;0.79;75.96
71057;BME280;58380;48.312;9.246;2023-04-06T07:12:50;93716.13;;;0.97;75.63
71057;BME280;58380;48.312;9.246;2023-04-06T07:15:16;93694.56;;;1.03;74.45
71057;BME280;58380;48.312;9.246;2023-04-06T07:17:42;93648.75;;;0.89;74.16
71057;BME280;58380;48.312;9.246;2023-04-06T07:20:10;93685.00;;;1.31;72.96
71057;BME280;58380;48.312;9.246;2023-04-06T07:22:37;93716.22;;;1.64;70.84
71057;BME280;58380;48.312;9.246;2023-04-06T07:25:03;93709.19;;;1.71;71.27
71057;BME280;58380;48.312;9.246;2023-04-06T07:27:29;93720.59;;;2.03;70.93
71057;BME280;58380;48.312;9.246;2023-04-06T07:29:54;93724.56;;;2.26;69.33
71057;BME280;58380;48.312;9.246;2023-04-06T07:32:20;93690.69;;;2.26;67.37
71057;BME280;58380;48.312;9.246;2023-04-06T07:34:45;93699.25;;;2.46;67.10
71057;BME280;58380;48.312;9.246;2023-04-06T07:37:12;93705.75;;;2.75;67.18
71057;BME280;58380;48.312;9.246;2023-04-06T07:39:37;93653.69;;;2.62;66.22
71057;BME280;58380;48.312;9.246;2023-04-06T07:42:03;93699.91;;;3.18;65.51
71057;BME280;58380;48.312;9.246;2023-04-06T07:44:28;93688.03;;;3.22;62.46
71057;BME280;58380;48.312;9.246;2023-04-06T07:46:54;93679.59;;;3.27;63.40
71057;BME280;58380;48.312;9.246;2023-04-06T07:49:20;93649.84;;;3.35;64.14
71057;BME280;58380;48.312;9.246;2023-04-06T07:51:46;93697.72;;;3.97;62.41
71057;BME280;58380;48.312;9.246;2023-04-06T07:54:11;93689.09;;;4.15;60.22
71057;BME280;58380;48.312;9.246;2023-04-06T07:56:38;93672.19;;;4.18;57.23
71057;BME280;58380;48.312;9.246;2023-04-06T07:59:03;93674.78;;;4.36;58.85
71057;BME280;58380;48.312;9.246;2023-04-06T08:01:29;93676.66;;;4.66;57.41
71057;BME280;58380;48.312;9.246;2023-04-06T08:03:56;93687.59;;;4.93;52.95
71057;BME280;58380;48.312;9.246;2023-04-06T08:06:24;93633.53;;;4.57;51.31
71057;BME280;58380;48.312;9.246;2023-04-06T08:08:49;93653.53;;;4.81;53.00
71057;BME280;58380;48.312;9.246;2023-04-06T08:11:15;93640.06;;;4.84;51.62
71057;BME280;58380;48.312;9.246;2023-04-06T08:13:40;93648.03;;;5.01;50.28
71057;BME280;58380;48.312;9.246;2023-04-06T08:16:06;93566.94;;;4.59;49.05
71057;BME280;58380;48.312;9.246;2023-04-06T08:18:34;93700.31;;;5.50;50.18
71057;BME280;58380;48.312;9.246;2023-04-06T08:21:00;93549.28;;;4.73;49.85
71057;BME280;58380;48.312;9.246;2023-04-06T08:23:28;93620.09;;;5.13;49.52
71057;BME280;58380;48.312;9.246;2023-04-06T08:25:56;93660.50;;;5.59;48.51
71057;BME280;58380;48.312;9.246;2023-04-06T08:28:22;93694.91;;;5.87;47.84
71057;BME280;58380;48.312;9.246;2023-04-06T08:30:48;93621.53;;;5.39;50.41
71057;BME280;58380;48.312;9.246;2023-04-06T08:33:14;93714.19;;;6.04;49.50
71057;BME280;58380;48.312;9.246;2023-04-06T08:35:40;93606.19;;;5.55;49.71
71057;BME280;58380;48.312;9.246;2023-04-06T08:38:33;93648.31;;;6.24;50.61
71057;BME280;58380;48.312;9.246;2023-04-06T08:41:19;93562.34;;;5.62;46.48
71057;BME280;58380;48.312;9.246;2023-04-06T08:43:49;93682.16;;;6.49;46.34
71057;BME280;58380;48.312;9.246;2023-04-06T08:46:33;93614.13;;;6.31;48.27
71057;BME280;58380;48.312;9.246;2023-04-06T08:49:01;93615.84;;;6.37;47.07
71057;BME280;58380;48.312;9.246;2023-04-06T08:51:36;93671.47;;;6.79;46.52
71057;BME280;58380;48.312;9.246;2023-04-06T08:57:34;93695.69;;;6.58;44.19
71057;BME280;58380;48.312;9.246;2023-04-06T09:03:26;93613.78;;;6.27;47.98
71057;BME280;58380;48.312;9.246;2023-04-06T09:06:01;93621.50;;;6.34;48.64
71057;BME280;58380;48.312;9.246;2023-04-06T09:08:29;93539.97;;;6.18;46.15
71057;BME280;58380;48.312;9.246;2023-04-06T09:10:55;93642.53;;;6.74;43.92
71057;BME280;58380;48.312;9.246;2023-04-06T09:13:44;93588.28;;;6.51;43.26
71057;BME280;58380;48.312;9.246;2023-04-06T09:16:19;93512.53;;;6.09;43.53
71057;BME280;58380;48.312;9.246;2023-04-06T09:18:46;93659.97;;;7.09;43.62
71057;BME280;58380;48.312;9.246;2023-04-06T09:21:22;93525.56;;;6.33;44.38
71057;BME280;58380;48.312;9.246;2023-04-06T09:24:01;93679.63;;;7.23;41.00
71057;BME280;58380;48.312;9.246;2023-04-06T09:29:24;93554.41;;;6.21;39.67
71057;BME280;58380;48.312;9.246;2023-04-06T09:32:02;93641.84;;;6.96;43.83
71057;BME280;58380;48.312;9.246;2023-04-06T09:34:28;93593.22;;;6.76;46.17
71057;BME280;58380;48.312;9.246;2023-04-06T09:36:56;93668.69;;;7.43;40.83
71057;BME280;58380;48.312;9.246;2023-04-06T09:39:30;93586.75;;;6.96;41.81
71057;BME280;58380;48.312;9.246;2023-04-06T09:41:58;93533.56;;;6.55;38.18
71057;BME280;58380;48.312;9.246;2023-04-06T09:47:06;93593.78;;;6.78;37.03
71057;BME280;58380;48.312;9.246;2023-04-06T09:49:39;93643.41;;;7.08;36.71
71057;BME280;58380;48.312;9.246;2023-04-06T09:52:06;93513.25;;;6.33;37.77
71057;BME280;58380;48.312;9.246;2023-04-06T09:54:36;93657.22;;;7.32;37.20
71057;BME280;58380;48.312;9.246;2023-04-06T10:00:13;93661.41;;;7.17;39.08
71057;BME280;58380;48.312;9.246;2023-04-06T10:02:58;93630.00;;;6.93;36.35
71057;BME280;58380;48.312;9.246;2023-04-06T10:05:43;93660.19;;;7.07;40.61
71057;BME280;58380;48.312;9.246;2023-04-06T10:08:15;93614.34;;;6.98;39.72
71057;BME280;58380;48.312;9.246;2023-04-06T10:10:41;93652.47;;;7.46;42.50
71057;BME280;58380;48.312;9.246;2023-04-06T10:13:11;93656.75;;;7.52;40.46
71057;BME280;58380;48.312;9.246;2023-04-06T10:15:38;93622.75;;;7.46;36.93
71057;BME280;58380;48.312;9.246;2023-04-06T10:18:08;93576.06;;;7.14;36.53
71057;BME280;58380;48.312;9.246;2023-04-06T10:21:00;93553.78;;;7.00;36.55
71057;BME280;58380;48.312;9.246;2023-04-06T10:23:36;93623.66;;;7.34;34.61
71057;BME280;58380;48.312;9.246;2023-04-06T10:26:03;93569.91;;;7.08;36.08
71057;BME280;58380;48.312;9.246;2023-04-06T10:28:34;93562.38;;;7.29;38.45
71057;BME280;58380;48.312;9.246;2023-04-06T10:31:06;93501.66;;;7.25;37.29
71057;BME280;58380;48.312;9.246;2023-04-06T10:33:35;93597.84;;;7.82;35.09
71057;BME280;58380;48.312;9.246;2023-04-06T10:36:52;93635.34;;;8.11;35.32
71057;BME280;58380;48.312;9.246;2023-04-06T10:39:27;93565.91;;;7.73;36.36
71057;BME280;58380;48.312;9.246;2023-04-06T10:44:41;93565.63;;;7.70;36.77
71057;BME280;58380;48.312;9.246;2023-04-06T10:47:16;93547.06;;;7.76;36.78
71057;BME280;58380;48.312;9.246;2023-04-06T10:49:49;93541.44;;;7.90;36.39
71057;BME280;58380;48.312;9.246;2023-04-06T10:52:26;93477.94;;;7.37;35.91
71057;BME280;58380;48.312;9.246;2023-04-06T10:54:52;93639.03;;;8.15;36.01
71057;BME280;58380;48.312;9.246;2023-04-06T10:57:28;93542.91;;;7.64;40.56
71057;BME280;58380;48.312;9.246;2023-04-06T10:59:54;93471.44;;;7.06;39.92
71057;BME280;58380;48.312;9.246;2023-04-06T11:02:22;93545.66;;;7.52;39.44
71057;BME280;58380;48.312;9.246;2023-04-06T11:04:58;93530.34;;;7.66;42.71
71057;BME280;58380;48.312;9.246;2023-04-06T11:07:27;93556.81;;;7.81;39.36
71057;BME280;58380;48.312;9.246;2023-04-06T11:09:55;93566.81;;;7.79;38.33
71057;BME280;58380;48.312;9.246;2023-04-06T11:12:25;93529.03;;;7.46;38.65
71057;BME280;58380;48.312;9.246;2023-04-06T11:14:56;93649.00;;;8.13;38.76
71057;BME280;58380;48.312;9.246;2023-04-06T11:17:31;93537.84;;;7.57;40.66
71057;BME280;58380;48.312;9.246;2023-04-06T11:19:59;93555.75;;;7.60;41.67
71057;BME280;58380;48.312;9.246;2023-04-06T11:22:25;93554.81;;;7.66;40.28
71057;BME280;58380;48.312;9.246;2023-04-06T11:24:51;93632.28;;;8.19;38.95
71057;BME280;58380;48.312;9.246;2023-04-06T11:27:20;93598.53;;;8.11;40.24
71057;BME280;58380;48.312;9.246;2023-04-06T11:29:46;93483.97;;;7.54;40.70
71057;BME280;58380;48.312;9.246;2023-04-06T11:32:20;93548.22;;;7.86;37.04
71057;BME280;58380;48.312;9.246;2023-04-06T11:34:47;93546.00;;;7.77;37.26
71057;BME280;58380;48.312;9.246;2023-04-06T11:37:13;93590.81;;;7.88;35.61
71057;BME280;58380;48.312;9.246;2023-04-06T11:42:28;93615.56;;;8.31;39.19
71057;BME280;58380;48.312;9.246;2023-04-06T11:44:58;93565.63;;;8.31;40.60
71057;BME280;58380;48.312;9.246;2023-04-06T11:47:30;93607.59;;;8.87;39.40
71057;BME280;58380;48.312;9.246;2023-04-06T11:50:06;93586.03;;;8.90;38.54
71057;BME280;58380;48.312;9.246;2023-04-06T11:52:38;93590.78;;;8.66;39.63
71057;BME280;58380;48.312;9.246;2023-04-06T11:55:15;93599.66;;;8.81;39.64
71057;BME280;58380;48.312;9.246;2023-04-06T11:57:44;93571.13;;;8.73;40.55
71057;BME280;58380;48.312;9.246;2023-04-06T12:00:11;93507.28;;;8.34;38.23
71057;BME280;58380;48.312;9.246;2023-04-06T12:02:38;93568.81;;;8.77;36.82
71057;BME280;58380;48.312;9.246;2023-04-06T12:05:07;93603.25;;;8.75;35.50
71057;BME280;58380;48.312;9.246;2023-04-06T12:07:38;93604.09;;;8.81;40.53
71057;BME280;58380;48.312;9.246;2023-04-06T12:10:07;93531.00;;;8.39;37.64
71057;BME280;58380;48.312;9.246;2023-04-06T12:12:33;93483.06;;;8.10;37.27
71057;BME280;58380;48.312;9.246;2023-04-06T12:14:59;93513.22;;;8.24;36.85
71057;BME280;58380;48.312;9.246;2023-04-06T12:17:25;93611.34;;;8.69;35.20
71057;BME280;58380;48.312;9.246;2023-04-06T12:19:58;93515.19;;;8.12;35.31
71057;BME280;58380;48.312;9.246;2023-04-06T12:22:36;93453.44;;;7.70;35.32
71057;BME280;58380;48.312;9.246;2023-04-06T12:25:05;93454.41;;;7.64;34.90
71057;BME280;58380;48.312;9.246;2023-04-06T12:27:32;93490.78;;;7.94;35.71
71057;BME280;58380;48.312;9.246;2023-04-06T12:29:58;93441.09;;;7.93;38.66
71057;BME280;58380;48.312;9.246;2023-04-06T12:32:23;93562.81;;;8.81;35.54
71057;BME280;58380;48.312;9.246;2023-04-06T12:34:56;93530.75;;;8.90;34.69
71057;BME280;58380;48.312;9.246;2023-04-06T12:37:36;93508.50;;;8.75;33.33
71057;BME280;58380;48.312;9.246;2023-04-06T12:48:21;93544.50;;;9.24;33.78
71057;BME280;58380;48.312;9.246;2023-04-06T12:51:00;93424.25;;;8.70;33.72
71057;BME280;58380;48.312;9.246;2023-04-06T12:57:36;93477.50;;;9.10;33.27
71057;BME280;58380;48.312;9.246;2023-04-06T13:03:59;93571.56;;;9.89;32.86
71057;BME280;58380;48.312;9.246;2023-04-06T13:07:23;93432.22;;;9.13;32.21
71057;BME280;58380;48.312;9.246;2023-04-06T13:21:23;93577.38;;;10.33;29.35
71057;BME280;58380;48.312;9.246;2023-04-06T13:23:50;93495.44;;;10.03;32.67
71057;BME280;58380;48.312;9.246;2023-04-06T13:30:25;93555.66;;;10.21;33.01
71057;BME280;58380;48.312;9.246;2023-04-06T13:52:27;93563.81;;;10.77;30.03
71057;BME280;58380;48.312;9.246;2023-04-06T14:02:38;93463.06;;;10.18;30.15
71057;BME280;58380;48.312;9.246;2023-04-06T14:23:24;93394.13;;;9.31;28.71
71057;BME280;58380;48.312;9.246;2023-04-06T14:54:06;93550.91;;;10.86;30.25
71057;BME280;58380;48.312;9.246;2023-04-06T14:56:44;93479.78;;;10.39;30.57
71057;BME280;58380;48.312;9.246;2023-04-06T15:50:36;93563.72;;;9.57;31.70
71057;BME280;58380;48.312;9.246;2023-04-06T16:28:48;93438.56;;;8.03;31.14
71057;BME280;58380;48.312;9.246;2023-04-06T17:01:29;93550.91;;;8.52;32.98
71057;BME280;58380;48.312;9.246;2023-04-06T17:04:49;93407.75;;;7.49;33.62
71057;BME280;58380;48.312;9.246;2023-04-06T17:23:24;93484.69;;;7.50;36.19
71057;BME280;58380;48.312;9.246;2023-04-06T17:56:05;93570.72;;;7.26;37.55
71057;BME280;58380;48.312;9.246;2023-04-06T17:58:31;93610.69;;;7.45;36.81
71057;BME280;58380;48.312;9.246;2023-04-06T18:00:56;93564.75;;;7.13;37.11
71057;BME280;58380;48.312;9.246;2023-04-06T18:03:22;93561.59;;;7.11;36.74
71057;BME280;58380;48.312;9.246;2023-04-06T18:05:47;93590.13;;;7.25;37.81
71057;BME280;58380;48.312;9.246;2023-04-06T18:08:14;93552.63;;;6.96;38.35
71057;BME280;58380;48.312;9.246;2023-04-06T18:10:40;93598.72;;;7.20;37.80
71057;BME280;58380;48.312;9.246;2023-04-06T18:13:09;93589.09;;;7.09;39.29
71057;BME280;58380;48.312;9.246;2023-04-06T18:15:35;93589.56;;;7.06;37.40
71057;BME280;58380;48.312;9.246;2023-04-06T18:18:02;93607.00;;;7.12;37.69
71057;BME280;58380;48.312;9.246;2023-04-06T18:20:29;93590.97;;;6.97;38.21
71057;BME280;58380;48.312;9.246;2023-04-06T18:22:54;93572.00;;;6.78;38.82
71057;BME280;58380;48.312;9.246;2023-04-06T18:25:20;93611.06;;;6.91;38.28
71057;BME280;58380;48.312;9.246;2023-04-06T18:27:45;93604.81;;;6.92;39.54
71057;BME280;58380;48.312;9.246;2023-04-06T18:30:12;93637.28;;;7.03;38.25
71057;BME280;58380;48.312;9.246;2023-04-06T18:32:38;93589.16;;;6.68;38.60
71057;BME280;58380;48.312;9.246;2023-04-06T18:35:04;93612.72;;;6.80;38.94
71057;BME280;58380;48.312;9.246;2023-04-06T18:37:30;93608.50;;;6.79;38.83
71057;BME280;58380;48.312;9.246;2023-04-06T18:39:56;93599.19;;;6.72;38.86
71057;BME280;58380;48.312;9.246;2023-04-06T18:42:21;93596.00;;;6.69;38.99
71057;BME280;58380;48.312;9.246;2023-04-06T18:44:47;93630.88;;;6.82;39.08
71057;BME280;58380;48.312;9.246;2023-04-06T18:47:12;93623.22;;;6.80;39.23
71057;BME280;58380;48.312;9.246;2023-04-06T18:49:38;93622.22;;;6.69;39.06
71057;BME280;58380;48.312;9.246;2023-04-06T18:52:06;93641.59;;;6.80;39.45
71057;BME280;58380;48.312;9.246;2023-04-06T18:54:31;93638.28;;;6.73;39.80
71057;BME280;58380;48.312;9.246;2023-04-06T18:56:57;93634.78;;;6.67;41.84
71057;BME280;58380;48.312;9.246;2023-04-06T18:59:22;93643.88;;;6.77;41.58
71057;BME280;58380;48.312;9.246;2023-04-06T19:01:48;93632.63;;;6.64;43.18
71057;BME280;58380;48.312;9.246;2023-04-06T19:04:18;93587.22;;;6.23;44.30
71057;BME280;58380;48.312;9.246;2023-04-06T19:06:45;93542.63;;;5.83;44.41
71057;BME280;58380;48.312;9.246;2023-04-06T19:09:10;93655.38;;;6.47;44.12
71057;BME280;58380;48.312;9.246;2023-04-06T19:11:36;93637.50;;;6.32;41.72
71057;BME280;58380;48.312;9.246;2023-04-06T19:14:01;93561.75;;;5.83;42.54
71057;BME280;58380;48.312;9.246;2023-04-06T19:16:27;93547.88;;;5.71;42.21
71057;BME280;58380;48.312;9.246;2023-04-06T19:18:53;93653.53;;;6.36;43.60
71057;BME280;58380;48.312;9.246;2023-04-06T19:21:20;93661.50;;;6.41;43.95
71057;BME280;58380;48.312;9.246;2023-04-06T19:23:49;93668.81;;;6.39;41.69
71057;BME280;58380;48.312;9.246;2023-04-06T19:26:17;93646.84;;;6.28;41.21
71057;BME280;58380;48.312;9.246;2023-04-06T19:28:45;93665.28;;;6.45;43.77
71057;BME280;58380;48.312;9.246;2023-04-06T19:31:12;93670.31;;;6.46;41.23
71057;BME280;58380;48.312;9.246;2023-04-06T19:33:41;93664.81;;;6.36;43.00
71057;BME280;58380;48.312;9.246;2023-04-06T19:36:07;93677.25;;;6.41;42.02
71057;BME280;58380;48.312;9.246;2023-04-06T19:38:33;93667.44;;;6.36;42.66
71057;BME280;58380;48.312;9.246;2023-04-06T19:41:00;93676.91;;;6.37;42.85
71057;BME280;58380;48.312;9.246;2023-04-06T19:43:26;93663.03;;;6.25;44.22
71057;BME280;58380;48.312;9.246;2023-04-06T19:45:51;93676.91;;;6.37;45.18
71057;BME280;58380;48.312;9.246;2023-04-06T19:48:17;93671.31;;;6.34;45.72
71057;BME280;58380;48.312;9.246;2023-04-06T19:50:44;93680.69;;;6.30;44.49
71057;BME280;58380;48.312;9.246;2023-04-06T19:53:10;93681.84;;;6.22;47.22
71057;BME280;58380;48.312;9.246;2023-04-06T19:55:36;93676.13;;;6.13;45.93
71057;BME280;58380;48.312;9.246;2023-04-06T19:58:03;93667.00;;;6.04;44.25
71057;BME280;58380;48.312;9.246;2023-04-06T20:00:28;93684.69;;;6.20;46.02
71057;BME280;58380;48.312;9.246;2023-04-06T20:02:54;93660.53;;;5.95;46.28
71057;BME280;58380;48.312;9.246;2023-04-06T20:05:19;93651.66;;;5.96;47.03
71057;BME280;58380;48.312;9.246;2023-04-06T20:07:45;93690.16;;;6.07;47.48
71057;BME280;58380;48.312;9.246;2023-04-06T20:10:11;93689.69;;;6.10;47.63
71057;BME280;58380;48.312;9.246;2023-04-06T20:12:40;93667.22;;;5.91;48.23
71057;BME280;58380;48.312;9.246;2023-04-06T20:15:06;93686.59;;;6.01;49.56
71057;BME280;58380;48.312;9.246;2023-04-06T20:17:32;93692.88;;;6.00;50.18
71057;BME280;58380;48.312;9.246;2023-04-06T20:19:57;93672.56;;;5.84;50.90
71057;BME280;58380;48.312;9.246;2023-04-06T20:22:23;93680.19;;;5.86;51.16
71057;BME280;58380;48.312;9.246;2023-04-06T20:24:48;93660.72;;;5.70;52.21
71057;BME280;58380;48.312;9.246;2023-04-06T20:27:14;93678.16;;;5.88;52.28
71057;BME280;58380;48.312;9.246;2023-04-06T20:29:41;93677.59;;;5.86;53.04
71057;BME280;58380;48.312;9.246;2023-04-06T20:32:06;93674.84;;;5.69;53.99
71057;BME280;58380;48.312;9.246;2023-04-06T20:34:32;93616.84;;;5.30;54.57
71057;BME280;58380;48.312;9.246;2023-04-06T20:36:58;93675.38;;;5.59;55.44
71057;BME280;58380;48.312;9.246;2023-04-06T20:39:24;93690.53;;;5.57;56.09
71057;BME280;58380;48.312;9.246;2023-04-06T20:41:51;93695.19;;;5.55;57.10
71057;BME280;58380;48.312;9.246;2023-04-06T20:44:17;93658.59;;;5.36;58.11
71057;BME280;58380;48.312;9.246;2023-04-06T20:46:44;93656.69;;;5.32;58.73
71057;BME280;58380;48.312;9.246;2023-04-06T20:49:12;93685.47;;;5.44;59.02
71057;BME280;58380;48.312;9.246;2023-04-06T20:51:37;93651.63;;;5.18;59.54
71057;BME280;58380;48.312;9.246;2023-04-06T20:54:03;93665.50;;;5.19;60.43
71057;BME280;58380;48.312;9.246;2023-04-06T20:56:29;93633.47;;;4.93;61.20
71057;BME280;58380;48.312;9.246;2023-04-06T20:58:55;93680.19;;;5.20;62.02
71057;BME280;58380;48.312;9.246;2023-04-06T21:01:22;93684.50;;;5.14;62.61
71057;BME280;58380;48.312;9.246;2023-04-06T21:03:47;93666.03;;;4.97;62.96
71057;BME280;58380;48.312;9.246;2023-04-06T21:06:13;93632.72;;;4.74;63.26
71057;BME280;58380;48.312;9.246;2023-04-06T21:08:39;93686.19;;;5.09;63.36
71057;BME280;58380;48.312;9.246;2023-04-06T21:11:05;93666.81;;;4.98;63.23
71057;BME280;58380;48.312;9.246;2023-04-06T21:13:31;93636.94;;;4.75;63.00
71057;BME280;58380;48.312;9.246;2023-04-06T21:15:56;93661.00;;;4.96;63.32
71057;BME280;58380;48.312;9.246;2023-04-06T21:18:22;93659.34;;;4.83;62.99
71057;BME280;58380;48.312;9.246;2023-04-06T21:20:47;93646.81;;;4.73;63.41
71057;BME280;58380;48.312;9.246;2023-04-06T21:23:13;93656.25;;;4.74;63.58
71057;BME280;58380;48.312;9.246;2023-04-06T21:25:38;93667.50;;;4.75;64.05
71057;BME280;58380;48.312;9.246;2023-04-06T21:28:04;93661.25;;;4.76;64.45
71057;BME280;58380;48.312;9.246;2023-04-06T21:30:29;93642.91;;;4.64;64.92
71057;BME280;58380;48.312;9.246;2023-04-06T21:33:02;93655.09;;;4.70;69.22
71057;BME280;58380;48.312;9.246;2023-04-06T21:35:28;93669.13;;;4.58;73.20
71057;BME280;58380;48.312;9.246;2023-04-06T21:37:53;93651.44;;;4.23;75.02
71057;BME280;58380;48.312;9.246;2023-04-06T21:40:19;93653.91;;;4.18;76.14
71057;BME280;58380;48.312;9.246;2023-04-06T21:42:45;93662.31;;;4.20;78.37
71057;BME280;58380;48.312;9.246;2023-04-06T21:45:10;93659.81;;;4.06;80.04
